Pagrindinis puslapis
METAR-TAF:

METAR-TAF

Oro uostai :

Montichiari

Breša, Italija

platuma: 45-24-02N, ilguma: 010-18-59E, Aukštis: 104 m

Dabartinis oras

Ataskaita buvo paskelbta 49 minutes, ne 18:50 UTC
Vėjas 2 kt iš Rytų/Šiaurės Rytų
Temperatūra 18°C
Drėgmė 73%
Slėgis 1022 hPa
Matomumas 10 km arba daugiau
Išsisklaidę debesys ne aukštis 6000 ft

METAR: LIPO 191850Z 06002KT 9999 SCT060 18/13 Q1022

Laikas: 21:39 (19:39 UTC)

Prognozė

Ataskaita buvo paskelbta 2 valandos ir 39 minutes, ne 17:00 UTC
Prognozė galioja nuo 19 metu 18 UTC su 20 metu 18 UTC
Vėjas 5 kt nuo kintamojo kryptimis
Matomumas 10 km arba daugiau
Išsisklaidę debesys ne aukštis 5000 ft

TAF: LIPO 191700Z 1918/2018 VRB05KT 9999 SCT050

Orai ataskaitas ir orų prognozės (METAR, TAF).

turimą stotys yra geltonos ir raudonos taškus žemėlapyje.

Perkelti pele per norėdami pamatyti stoties vardą.

Tada spustelėkite, norėdami matyti oro stebėjimo ir prognozės.

Norėdami pakeisti žemėlapį: spustelėkite ant žalios mygtukų su juodo kryžiaus žemyn,; žalią mygtuką su brūkšneliu, jei norite nutolinti; arba žalių rodyklių gretimoms žemėlapius.


METAR-TAF: